createdAt,value
2018-06-27T00:00:02.280Z,16.4
2018-06-27T00:05:01.457Z,16.4
2018-06-27T00:10:01.274Z,16.3
2018-06-27T00:15:02.504Z,16.3
2018-06-27T00:20:01.494Z,16.3
2018-06-27T00:25:01.339Z,16.2
2018-06-27T00:30:01.865Z,16.1
2018-06-27T00:35:01.978Z,16.1
2018-06-27T00:40:02.434Z,16.1
2018-06-27T00:45:02.068Z,16
2018-06-27T00:50:01.590Z,16
2018-06-27T00:55:02.411Z,15.9
2018-06-27T01:00:01.239Z,15.9
2018-06-27T01:05:01.600Z,15.8
2018-06-27T01:10:01.463Z,15.8
2018-06-27T01:15:01.726Z,15.8
2018-06-27T01:20:01.205Z,15.7
2018-06-27T01:25:01.684Z,15.7
2018-06-27T01:30:01.734Z,15.6
2018-06-27T01:35:01.913Z,15.6
2018-06-27T01:40:01.777Z,15.6
2018-06-27T01:45:01.664Z,15.5
2018-06-27T01:50:01.872Z,15.6
2018-06-27T01:55:01.535Z,15.6
2018-06-27T02:00:02.056Z,15.5
2018-06-27T02:05:01.975Z,15.5
2018-06-27T02:10:02.098Z,15.4
2018-06-27T02:15:01.288Z,15.4
2018-06-27T02:20:02.213Z,15.4
2018-06-27T02:25:01.841Z,15.4
2018-06-27T02:30:02.125Z,15.3
2018-06-27T02:35:01.780Z,15.3
2018-06-27T02:40:01.674Z,15.3
2018-06-27T02:45:01.312Z,15.3
2018-06-27T02:50:01.239Z,15.4
2018-06-27T02:55:01.853Z,15.4
2018-06-27T03:00:02.148Z,15.4
2018-06-27T03:05:01.874Z,15.3
2018-06-27T03:10:02.424Z,15.2
2018-06-27T03:15:02.099Z,15.1
2018-06-27T03:20:01.717Z,15.1
2018-06-27T03:25:01.228Z,15.2
2018-06-27T03:30:01.923Z,15.2
2018-06-27T03:35:01.503Z,15.3
2018-06-27T03:40:01.613Z,15.4
2018-06-27T03:45:01.825Z,15.5
2018-06-27T03:50:02.145Z,15.5
2018-06-27T03:55:01.328Z,15.6
2018-06-27T04:00:02.129Z,15.7
2018-06-27T04:05:01.455Z,15.7
2018-06-27T04:10:01.459Z,15.7
2018-06-27T04:15:01.308Z,15.8
2018-06-27T04:20:01.976Z,15.9
2018-06-27T04:25:01.693Z,15.8
2018-06-27T04:30:01.987Z,15.9
2018-06-27T04:35:02.402Z,15.9
2018-06-27T04:40:01.372Z,16.2
2018-06-27T04:45:02.004Z,16.3
2018-06-27T04:50:01.550Z,16.4
2018-06-27T04:55:01.877Z,16.4
2018-06-27T05:00:01.270Z,16.5
2018-06-27T05:05:01.945Z,16.5
2018-06-27T05:10:01.635Z,16.7
2018-06-27T05:15:01.504Z,16.9
2018-06-27T05:20:01.972Z,17
2018-06-27T05:25:02.451Z,17
2018-06-27T05:30:01.941Z,17
2018-06-27T05:35:02.031Z,17
2018-06-27T05:40:02.637Z,17.5
2018-06-27T05:45:02.099Z,18
2018-06-27T05:50:01.925Z,18.2
2018-06-27T05:55:01.276Z,18.3
2018-06-27T06:00:02.813Z,18.6
2018-06-27T06:05:01.618Z,19
2018-06-27T06:10:02.026Z,19.2
2018-06-27T06:15:02.323Z,19.5
2018-06-27T06:20:01.468Z,19.8
2018-06-27T06:25:01.211Z,20
2018-06-27T06:30:01.780Z,20.2
2018-06-27T06:35:01.702Z,20.2
2018-06-27T06:40:01.522Z,20.2
2018-06-27T06:45:02.046Z,20.4
2018-06-27T06:50:01.975Z,20.7
2018-06-27T06:55:02.007Z,20.7
2018-06-27T07:00:01.492Z,21
2018-06-27T07:05:02.065Z,21.1
2018-06-27T07:10:02.028Z,21.3
2018-06-27T07:15:01.578Z,21.6
2018-06-27T07:20:02.429Z,21.7
2018-06-27T07:25:02.128Z,21.7
2018-06-27T07:30:01.913Z,21.8
2018-06-27T07:35:02.006Z,22.1
2018-06-27T07:40:02.138Z,22.4
2018-06-27T07:45:01.166Z,22.4
2018-06-27T07:50:01.908Z,22.7
2018-06-27T07:55:01.371Z,22.1
2018-06-27T08:00:02.214Z,21.8
2018-06-27T08:05:02.017Z,21.8
2018-06-27T08:10:01.224Z,22
2018-06-27T08:15:02.488Z,22.4
2018-06-27T08:20:01.539Z,22.4
2018-06-27T08:25:01.246Z,23
2018-06-27T08:30:01.928Z,22.9
2018-06-27T08:35:01.845Z,23.2
2018-06-27T08:40:01.686Z,23.4
2018-06-27T08:45:01.456Z,23.3
2018-06-27T08:50:02.081Z,23.6
2018-06-27T08:55:01.612Z,24.4
2018-06-27T09:00:01.574Z,24.7
2018-06-27T09:05:01.555Z,24.5
2018-06-27T09:10:01.517Z,24.7
2018-06-27T09:15:01.346Z,25
2018-06-27T09:20:01.760Z,25.5
2018-06-27T09:25:01.588Z,25.3
2018-06-27T09:30:01.276Z,25
2018-06-27T09:35:01.663Z,25.2
2018-06-27T09:40:01.522Z,25
2018-06-27T09:45:02.044Z,24.8
2018-06-27T09:50:02.095Z,24.8
2018-06-27T09:55:01.636Z,24.8
2018-06-27T10:00:02.187Z,24.7
2018-06-27T10:05:01.966Z,24.5
2018-06-27T10:10:02.317Z,24.9
2018-06-27T10:15:02.139Z,25.1
2018-06-27T10:20:01.868Z,25.2
2018-06-27T10:25:01.639Z,25.5
2018-06-27T10:30:01.829Z,25.5
2018-06-27T10:35:01.553Z,25.5
2018-06-27T10:40:01.401Z,25.5
2018-06-27T10:45:01.905Z,25.4
2018-06-27T10:50:01.525Z,25.7
2018-06-27T10:55:01.718Z,25.9
2018-06-27T11:00:01.801Z,26.1
2018-06-27T11:05:01.853Z,26.5
2018-06-27T11:10:01.890Z,26.5
2018-06-27T11:15:01.755Z,26.6
2018-06-27T11:20:01.541Z,26.4
2018-06-27T11:25:01.474Z,26.7
2018-06-27T11:30:01.839Z,26.6
2018-06-27T11:35:02.167Z,27
2018-06-27T11:40:01.172Z,27
2018-06-27T11:45:02.465Z,27.3
2018-06-27T11:50:01.780Z,27.2
2018-06-27T11:55:01.715Z,27.4
2018-06-27T12:00:01.205Z,27.3
2018-06-27T12:05:02.299Z,27.4
2018-06-27T12:10:02.038Z,27.5
2018-06-27T12:15:01.228Z,27.5
2018-06-27T12:20:01.261Z,27.5
2018-06-27T12:25:02.407Z,27.5
2018-06-27T12:30:01.843Z,27.7
2018-06-27T12:35:01.880Z,27.4
2018-06-27T12:40:01.744Z,27.1
2018-06-27T12:45:01.445Z,26.6
2018-06-27T12:50:01.372Z,26.6
2018-06-27T12:55:01.304Z,26.8
2018-06-27T13:00:02.021Z,26.3
2018-06-27T13:05:01.318Z,26.4
2018-06-27T13:10:02.626Z,26.6
2018-06-27T13:15:01.301Z,26.5
2018-06-27T13:20:01.876Z,26.4
2018-06-27T13:25:01.877Z,26.5
2018-06-27T13:30:01.778Z,26.7
2018-06-27T13:35:02.357Z,26.8
2018-06-27T13:40:01.253Z,26.4
2018-06-27T13:45:01.793Z,26.4
2018-06-27T13:50:01.667Z,26.6
2018-06-27T13:55:02.287Z,26.6
2018-06-27T14:00:02.067Z,26.3
2018-06-27T14:05:01.243Z,26.1
2018-06-27T14:10:01.262Z,26.3
2018-06-27T14:15:01.544Z,26.3
2018-06-27T14:20:01.218Z,26.1
2018-06-27T14:25:01.304Z,26.1
2018-06-27T14:30:01.970Z,26.1
2018-06-27T14:35:01.622Z,26
2018-06-27T14:40:01.514Z,25.7
2018-06-27T14:45:02.461Z,25.7
2018-06-27T14:50:01.391Z,25.7
2018-06-27T14:55:01.600Z,25.8
2018-06-27T15:00:02.455Z,26
2018-06-27T15:05:01.743Z,26
2018-06-27T15:10:01.645Z,25.9
2018-06-27T15:15:01.662Z,25.7
2018-06-27T15:20:01.838Z,25.5
2018-06-27T15:25:01.415Z,25.3
2018-06-27T15:30:01.871Z,25.3
2018-06-27T15:35:01.620Z,25.7
2018-06-27T15:40:01.323Z,25.8
2018-06-27T15:45:01.851Z,26
2018-06-27T15:50:01.774Z,26
2018-06-27T15:55:01.314Z,25.8
2018-06-27T16:00:01.468Z,25.3
2018-06-27T16:05:01.791Z,25.1
2018-06-27T16:10:01.967Z,25
2018-06-27T16:15:01.258Z,25.1
2018-06-27T16:20:01.483Z,24.7
2018-06-27T16:25:01.895Z,24.5
2018-06-27T16:30:01.433Z,24.3
2018-06-27T16:35:01.755Z,24.3
2018-06-27T16:40:01.469Z,24.2
2018-06-27T16:45:01.490Z,24.1
2018-06-27T16:50:01.719Z,24.1
2018-06-27T16:55:01.650Z,24.1
2018-06-27T17:00:01.902Z,23.9
2018-06-27T17:05:01.933Z,23.9
2018-06-27T17:10:02.124Z,24.1
2018-06-27T17:15:01.370Z,24.2
2018-06-27T17:20:02.353Z,24.2
2018-06-27T17:25:01.803Z,23.9
2018-06-27T17:30:02.005Z,23.7
2018-06-27T17:35:01.355Z,23.4
2018-06-27T17:40:01.954Z,23.3
2018-06-27T17:45:01.797Z,23
2018-06-27T17:50:01.687Z,22.6
2018-06-27T17:55:02.126Z,22.3
2018-06-27T18:00:01.780Z,22.1
2018-06-27T18:05:01.702Z,21.8
2018-06-27T18:10:01.612Z,21.5
2018-06-27T18:15:02.929Z,21.4
2018-06-27T18:20:01.948Z,21.3
2018-06-27T18:25:01.715Z,21.2
2018-06-27T18:30:01.538Z,21.1
2018-06-27T18:35:01.564Z,21
2018-06-27T18:40:01.541Z,20.9
2018-06-27T18:45:01.455Z,20.8
2018-06-27T18:50:01.839Z,20.7
2018-06-27T18:55:01.860Z,20.6
2018-06-27T19:00:01.414Z,20.5
2018-06-27T19:05:01.950Z,20.4
2018-06-27T19:10:01.752Z,20.2
2018-06-27T19:15:02.091Z,20.1
2018-06-27T19:20:01.676Z,20
2018-06-27T19:25:02.021Z,20
2018-06-27T19:30:01.626Z,19.8
2018-06-27T19:35:02.137Z,19.7
2018-06-27T19:40:01.753Z,19.6
2018-06-27T19:45:02.449Z,19.4
2018-06-27T19:50:01.190Z,19.3
2018-06-27T19:55:02.178Z,19.2
2018-06-27T20:00:01.456Z,19.1
2018-06-27T20:05:01.531Z,19
2018-06-27T20:10:01.526Z,18.9
2018-06-27T20:15:01.284Z,18.8
2018-06-27T20:20:01.692Z,18.7
2018-06-27T20:25:01.300Z,18.5
2018-06-27T20:30:01.631Z,18.5
2018-06-27T20:35:02.183Z,18.4
2018-06-27T20:40:01.299Z,18.3
2018-06-27T20:45:01.566Z,18.2
2018-06-27T20:50:01.341Z,18.1
2018-06-27T20:55:02.084Z,18.1
2018-06-27T21:00:01.240Z,18
2018-06-27T21:05:01.547Z,18
2018-06-27T21:10:02.570Z,17.9
2018-06-27T21:15:01.838Z,17.9
2018-06-27T21:20:01.985Z,17.8
2018-06-27T21:25:01.987Z,17.8
2018-06-27T21:30:02.293Z,17.8
2018-06-27T21:35:01.452Z,17.7
2018-06-27T21:40:02.156Z,17.7
2018-06-27T21:45:02.736Z,17.7
2018-06-27T21:50:02.071Z,17.7
2018-06-27T21:55:02.248Z,17.7
2018-06-27T22:00:01.562Z,17.6
2018-06-27T22:05:01.765Z,17.6
2018-06-27T22:10:01.311Z,17.6
2018-06-27T22:15:01.474Z,17.6
2018-06-27T22:20:02.102Z,17.6
2018-06-27T22:25:01.557Z,17.6
2018-06-27T22:30:01.805Z,17.6
2018-06-27T22:35:01.755Z,17.6
2018-06-27T22:40:02.046Z,17.4
2018-06-27T22:45:01.620Z,17.4
2018-06-27T22:50:01.585Z,17.4
2018-06-27T22:55:02.150Z,17.3
2018-06-27T23:00:01.466Z,17.3
2018-06-27T23:05:01.385Z,17.3
2018-06-27T23:10:01.396Z,17.3
2018-06-27T23:15:02.428Z,17.2
2018-06-27T23:20:01.997Z,17.2
2018-06-27T23:25:01.878Z,17.1
2018-06-27T23:30:01.695Z,17.1
2018-06-27T23:35:02.463Z,17
2018-06-27T23:40:01.172Z,16.9
2018-06-27T23:45:02.101Z,16.9
2018-06-27T23:50:01.683Z,16.9
2018-06-27T23:55:02.016Z,16.8
